createdAt,value
2018-04-06T00:04:26.340Z,"    0"
2018-04-06T00:09:26.048Z,"    0"
2018-04-06T00:14:21.936Z,"    0"
2018-04-06T00:19:18.380Z,"    0"
2018-04-06T00:24:18.557Z,"    0"
2018-04-06T00:29:15.150Z,"    0"
2018-04-06T00:34:11.836Z,"    0"
2018-04-06T00:39:07.206Z,"    0"
2018-04-06T00:44:02.990Z,"    0"
2018-04-06T00:49:01.455Z,"    0"
2018-04-06T00:54:01.615Z,"    0"
2018-04-06T00:59:01.072Z,"    0"
2018-04-06T01:03:56.000Z,"    0"
2018-04-06T01:08:52.954Z,"    0"
2018-04-06T01:13:49.671Z,"    0"
2018-04-06T01:18:49.029Z,"    0"
2018-04-06T01:23:45.059Z,"    0"
2018-04-06T01:28:40.556Z,"    0"
2018-04-06T01:33:41.217Z,"    0"
2018-04-06T01:38:35.965Z,"    0"
2018-04-06T01:43:31.815Z,"    0"
2018-04-06T01:48:28.366Z,"    0"
2018-04-06T01:53:24.587Z,"    0"
2018-04-06T01:58:21.098Z,"    0"
2018-04-06T02:03:16.484Z,"    0"
2018-04-06T02:08:17.091Z,"    0"
2018-04-06T02:13:15.628Z,"    0"
2018-04-06T02:18:10.233Z,"    0"
2018-04-06T02:23:06.725Z,"    0"
2018-04-06T02:28:08.025Z,"    0"
2018-04-06T02:33:07.474Z,"    0"
2018-04-06T02:38:01.730Z,"    0"
2018-04-06T02:42:58.848Z,"    0"
2018-04-06T02:47:55.241Z,"    0"
2018-04-06T02:52:55.445Z,"    0"
2018-04-06T02:57:51.370Z,"    0"
2018-04-06T03:02:50.945Z,"    0"
2018-04-06T03:07:47.646Z,"    0"
2018-04-06T03:12:47.279Z,"    0"
2018-04-06T03:17:46.252Z,"    0"
2018-04-06T03:22:41.127Z,"    0"
2018-04-06T03:27:41.621Z,"    0"
2018-04-06T03:32:40.487Z,"    0"
2018-04-06T03:37:35.237Z,"    0"
2018-04-06T03:42:35.010Z,"    0"
2018-04-06T03:47:30.084Z,"    0"
2018-04-06T03:52:30.403Z,"    0"
2018-04-06T03:57:29.986Z,"    0"
2018-04-06T04:02:29.607Z,"    0"
2018-04-06T04:07:29.763Z,"    0"
2018-04-06T04:12:29.308Z,"    0"
2018-04-06T04:17:27.685Z,"    0"
2018-04-06T04:22:22.373Z,"    4"
2018-04-06T04:27:23.006Z,"    8"
2018-04-06T04:32:18.344Z,"   12"
2018-04-06T04:37:14.545Z,"   24"
2018-04-06T04:42:13.873Z,"   52"
2018-04-06T04:47:13.918Z,"  100"
2018-04-06T04:52:13.639Z,"  172"
2018-04-06T04:57:09.416Z,"  264"
2018-04-06T05:02:08.798Z,"  384"
2018-04-06T05:07:04.555Z,"  528"
2018-04-06T05:12:00.000Z,"  684"
2018-04-06T05:16:59.619Z,"  864"
2018-04-06T05:21:58.365Z," 1032"
2018-04-06T05:26:57.938Z," 1224"
2018-04-06T05:31:52.674Z," 1432"
2018-04-06T05:36:48.597Z," 1584"
2018-04-06T05:41:44.953Z," 2108"
2018-04-06T05:46:40.218Z," 2968"
2018-04-06T05:51:41.941Z," 3076"
2018-04-06T05:56:36.499Z," 3172"
2018-04-06T06:01:36.442Z," 4556"
2018-04-06T06:06:31.948Z," 2972"
2018-04-06T06:11:32.792Z," 2764"
2018-04-06T06:16:27.737Z," 4524"
2018-04-06T06:21:23.728Z," 3044"
2018-04-06T06:26:20.246Z," 2984"
2018-04-06T06:31:20.523Z," 6676"
2018-04-06T06:36:19.893Z," 7744"
2018-04-06T06:41:20.048Z," 5392"
2018-04-06T06:46:19.007Z," 4836"
2018-04-06T06:51:19.106Z," 5740"
2018-04-06T06:56:19.259Z," 8724"
2018-04-06T07:01:19.110Z,10584
2018-04-06T07:06:14.346Z,14784
2018-04-06T07:11:11.209Z,10604
2018-04-06T07:16:10.875Z,14104
2018-04-06T07:21:10.627Z,13392
2018-04-06T07:26:07.243Z,11996
2018-04-06T07:31:04.369Z," 8112"
2018-04-06T07:36:01.225Z,17888
2018-04-06T07:41:02.340Z,17984
2018-04-06T07:45:59.122Z,17152
2018-04-06T07:51:00.037Z,20448
2018-04-06T07:55:57.250Z,20096
2018-04-06T08:00:59.888Z,17664
2018-04-06T08:05:56.496Z,16864
2018-04-06T08:10:58.530Z,13604
2018-04-06T08:16:02.920Z,15744
2018-04-06T08:21:01.635Z,32480
2018-04-06T08:25:58.488Z,19232
2018-04-06T08:30:56.207Z,24672
2018-04-06T08:35:54.132Z,22368
2018-04-06T08:40:53.716Z,13504
2018-04-06T08:45:53.747Z,14076
2018-04-06T08:50:53.769Z,21312
2018-04-06T08:55:51.631Z,13276
2018-04-06T09:00:46.601Z,18304
2018-04-06T09:05:48.971Z,10452
2018-04-06T09:10:47.865Z," 9556"
2018-04-06T09:15:43.778Z," 8704"
2018-04-06T09:20:43.315Z,11640
2018-04-06T09:25:39.503Z,18528
2018-04-06T09:35:43.106Z,29216
2018-04-06T09:40:42.770Z,13048
2018-04-06T09:45:44.038Z,31264
2018-04-06T09:50:40.086Z,12732
2018-04-06T09:55:40.919Z,25760
2018-04-06T10:00:37.046Z,24032
2018-04-06T10:05:33.709Z,24384
2018-04-06T10:10:29.769Z,37760
2018-04-06T10:15:33.492Z,51136
2018-04-06T10:20:31.281Z,62432
2018-04-06T10:25:33.422Z,74752
2018-04-06T10:30:28.986Z,61088
2018-04-06T10:35:26.543Z,65376
2018-04-06T10:40:23.549Z,69088
2018-04-06T10:45:24.364Z,73728
2018-04-06T10:50:19.854Z,49376
2018-04-06T10:55:19.996Z,56064
2018-04-06T11:00:15.196Z,61728
2018-04-06T11:05:11.570Z,41664
2018-04-06T11:10:09.314Z,63872
2018-04-06T11:15:10.401Z,57568
2018-04-06T11:20:10.914Z,67104
2018-04-06T11:25:10.238Z,63200
2018-04-06T11:30:11.704Z,68896
2018-04-06T11:35:13.415Z,73344
2018-04-06T11:40:15.162Z,56032
2018-04-06T11:45:16.456Z,67840
2018-04-06T11:50:11.501Z,59840
2018-04-06T11:55:12.418Z,62432
2018-04-06T12:00:07.946Z,52320
2018-04-06T12:05:09.414Z,61152
2018-04-06T12:10:09.216Z,57376
2018-04-06T12:15:08.947Z,75328
2018-04-06T12:20:07.886Z,53952
2018-04-06T12:25:03.896Z,64320
2018-04-06T12:30:03.716Z,45088
2018-04-06T12:34:58.358Z,36192
2018-04-06T12:39:53.493Z,11432
2018-04-06T12:44:52.166Z,31232
2018-04-06T12:49:47.809Z,44448
2018-04-06T12:54:44.954Z,71232
2018-04-06T12:59:45.027Z,41632
2018-04-06T13:04:43.310Z,33568
2018-04-06T13:09:41.934Z,31520
2018-04-06T13:14:42.754Z,33024
2018-04-06T13:19:42.251Z,26752
2018-04-06T13:24:42.219Z,30240
2018-04-06T13:29:44.431Z,23648
2018-04-06T13:34:44.996Z,39200
2018-04-06T13:39:45.211Z," 9492"
2018-04-06T13:44:45.443Z," 5240"
2018-04-06T13:49:40.691Z," 4368"
2018-04-06T13:54:40.917Z," 4228"
2018-04-06T13:59:34.833Z," 3648"
2018-04-06T14:04:30.264Z," 3680"
2018-04-06T14:09:26.316Z," 3804"
2018-04-06T14:14:23.917Z," 3904"
2018-04-06T14:19:24.670Z," 3732"
2018-04-06T14:24:23.681Z," 3696"
2018-04-06T14:29:19.588Z," 3660"
2018-04-06T14:34:21.169Z," 3696"
2018-04-06T14:39:16.066Z," 3408"
2018-04-06T14:44:13.205Z," 3880"
2018-04-06T14:49:13.055Z," 3848"
2018-04-06T14:54:09.349Z," 3856"
2018-04-06T14:59:09.422Z," 3728"
2018-04-06T15:04:08.485Z," 3356"
2018-04-06T15:09:03.987Z," 3132"
2018-04-06T15:14:00.804Z," 3300"
2018-04-06T15:19:00.483Z," 3472"
2018-04-06T15:23:59.923Z," 3352"
2018-04-06T15:28:54.544Z," 3004"
2018-04-06T15:33:54.462Z," 2868"
2018-04-06T15:38:49.452Z," 2780"
2018-04-06T15:48:45.270Z," 2540"
2018-04-06T15:53:45.971Z," 2476"
2018-04-06T15:58:45.653Z," 2404"
2018-04-06T16:03:41.558Z," 2368"
2018-04-06T16:08:38.082Z," 2320"
2018-04-06T16:13:34.973Z," 2288"
2018-04-06T16:18:35.141Z," 2264"
2018-04-06T16:23:34.900Z," 2196"
2018-04-06T16:28:34.111Z," 2144"
2018-04-06T16:33:29.692Z," 2052"
2018-04-06T16:38:25.375Z," 1880"
2018-04-06T16:43:21.184Z," 1744"
2018-04-06T16:48:17.967Z," 1600"
2018-04-06T16:53:18.791Z," 1472"
2018-04-06T16:58:13.222Z," 1320"
2018-04-06T17:03:13.817Z," 1188"
2018-04-06T17:08:08.464Z," 1080"
2018-04-06T17:13:04.348Z,"  980"
2018-04-06T17:18:01.302Z,"  932"
2018-04-06T17:22:56.544Z,"  904"
2018-04-06T17:27:52.460Z,"  808"
2018-04-06T17:32:49.686Z,"  724"
2018-04-06T17:37:45.099Z,"  616"
2018-04-06T17:42:40.792Z,"  504"
2018-04-06T17:47:40.551Z,"  416"
2018-04-06T17:52:36.429Z,"  340"
2018-04-06T17:57:33.647Z,"  268"
2018-04-06T18:02:30.229Z,"  204"
2018-04-06T18:07:29.570Z,"  140"
2018-04-06T18:12:25.095Z,"   96"
2018-04-06T18:17:25.590Z,"   56"
2018-04-06T18:22:21.615Z,"   28"
2018-04-06T18:27:20.830Z,"   12"
2018-04-06T18:32:20.894Z,"    4"
2018-04-06T18:37:15.555Z,"    4"
2018-04-06T18:42:16.597Z,"    0"
2018-04-06T18:47:12.431Z,"    0"
2018-04-06T18:52:08.573Z,"    0"
2018-04-06T18:57:05.183Z,"    0"
2018-04-06T19:02:04.792Z,"    0"
2018-04-06T19:07:01.847Z,"    0"
2018-04-06T19:12:02.208Z,"    0"
2018-04-06T19:17:01.390Z,"    0"
2018-04-06T19:22:00.108Z,"    0"
2018-04-06T19:32:00.494Z,"    0"
2018-04-06T19:36:56.509Z,"    0"
2018-04-06T19:41:56.323Z,"    0"
2018-04-06T19:46:55.272Z,"    0"
2018-04-06T19:51:51.910Z,"    0"
2018-04-06T19:56:47.560Z,"    0"
2018-04-06T20:01:49.473Z,"    0"
2018-04-06T20:06:43.878Z,"    0"
2018-04-06T20:11:39.366Z,"    0"
2018-04-06T20:16:39.100Z,"    0"
2018-04-06T20:21:38.052Z,"    0"
2018-04-06T20:26:37.035Z,"    0"
2018-04-06T20:31:31.452Z,"    0"
2018-04-06T20:36:32.420Z,"    0"
2018-04-06T20:41:27.267Z,"    0"
2018-04-06T20:46:26.854Z,"    0"
2018-04-06T20:51:21.750Z,"    0"
2018-04-06T20:56:21.532Z,"    0"
2018-04-06T21:01:17.621Z,"    0"
2018-04-06T21:06:13.196Z,"    0"
2018-04-06T21:11:13.235Z,"    0"
2018-04-06T21:16:08.036Z,"    0"
2018-04-06T21:21:07.906Z,"    0"
2018-04-06T21:26:03.108Z,"    0"
2018-04-06T21:30:59.520Z,"    0"
2018-04-06T21:35:56.336Z,"    0"
2018-04-06T21:40:56.950Z,"    0"
2018-04-06T21:45:52.853Z,"    0"
2018-04-06T21:50:48.202Z,"    0"
2018-04-06T21:55:43.989Z,"    0"
2018-04-06T22:00:40.560Z,"    0"
2018-04-06T22:05:37.338Z,"    0"
2018-04-06T22:10:33.481Z,"    0"
2018-04-06T22:15:34.411Z,"    0"
2018-04-06T22:20:29.028Z,"    0"
2018-04-06T22:25:24.831Z,"    0"
2018-04-06T22:30:24.352Z,"    0"
2018-04-06T22:35:19.293Z,"    0"
2018-04-06T22:40:19.008Z,"    0"
2018-04-06T22:45:17.811Z,"    0"
2018-04-06T22:50:17.657Z,"    0"
2018-04-06T22:55:16.640Z,"    0"
2018-04-06T23:00:15.598Z,"    0"
2018-04-06T23:05:14.990Z,"    0"
2018-04-06T23:10:10.632Z,"    0"
2018-04-06T23:15:09.974Z,"    0"
2018-04-06T23:20:06.467Z,"    0"
2018-04-06T23:25:05.868Z,"    0"
2018-04-06T23:30:01.763Z,"    0"
2018-04-06T23:34:58.229Z,"    0"
2018-04-06T23:39:58.294Z,"    0"
2018-04-06T23:44:53.369Z,"    0"
2018-04-06T23:49:50.717Z,"    0"
2018-04-06T23:54:49.992Z,"    0"
2018-04-06T23:59:49.598Z,"    0"
